Time;durP1;ratioP1;P1;durP2;ratioP2;P2;SDS_P1;SDS_P2;PMS_P1;PMS_P2;Temp;Humidity;BMP_temperature;BMP_pressure;BME280_temperature;BME280_humidity;BME280_pressure;Samples;Min_cycle;Max_cycle;Signal;HPM_P1;HPM_P2
2023/04/22 00:01:18;;;;;;;7.72;5.93;;;;;;;11.93;49.00;100809.53;5013850;28;20054;-62
2023/04/22 00:03:45;;;;;;;9.93;5.78;;;;;;;11.91;49.10;100809.63;5013906;28;20536;-64
2023/04/22 00:06:13;;;;;;;9.55;5.93;;;;;;;11.88;49.14;100797.47;5020534;28;20406;-62
2023/04/22 00:08:40;;;;;;;8.25;6.05;;;;;;;11.86;49.24;100799.34;5016236;28;20045;-61
2023/04/22 00:11:07;;;;;;;10.25;5.50;;;;;;;11.84;49.73;100801.25;5011660;28;20052;-60
2023/04/22 00:13:35;;;;;;;9.18;5.78;;;;;;;11.82;49.61;100795.22;5012954;28;20080;-62
2023/04/22 00:16:03;;;;;;;7.80;6.05;;;;;;;11.80;49.51;100794.44;5013219;28;20133;-61
2023/04/22 00:18:34;;;;;;;8.93;5.60;;;;;;;11.77;49.76;100786.69;5011339;28;20049;-63
2023/04/22 00:21:02;;;;;;;7.72;5.90;;;;;;;11.74;49.44;100780.75;5001887;28;20391;-59
2023/04/22 00:23:30;;;;;;;9.18;6.10;;;;;;;11.70;50.01;100774.81;5010636;28;20065;-62
2023/04/22 00:25:57;;;;;;;8.77;6.28;;;;;;;11.66;50.10;100774.19;5002779;28;20042;-58
2023/04/22 00:28:24;;;;;;;10.52;6.18;;;;;;;11.63;50.17;100776.16;5006995;28;20145;-60
2023/04/22 00:30:52;;;;;;;7.93;5.82;;;;;;;11.59;50.28;100778.13;5001632;28;20060;-63
2023/04/22 00:33:19;;;;;;;11.30;6.22;;;;;;;11.56;50.15;100770.38;4996001;28;20084;-61
2023/04/22 00:35:46;;;;;;;10.77;6.40;;;;;;;11.53;50.33;100767.97;5002960;28;20149;-63
2023/04/22 00:38:13;;;;;;;9.63;6.22;;;;;;;11.51;50.58;100768.97;5003143;28;20048;-61
2023/04/22 00:40:41;;;;;;;11.05;5.93;;;;;;;11.47;50.46;100764.81;5001196;28;20065;-62
2023/04/22 00:43:08;;;;;;;9.02;6.43;;;;;;;11.44;50.54;100773.78;4997452;28;20049;-61
2023/04/22 00:45:36;;;;;;;9.70;6.65;;;;;;;11.43;50.39;100771.22;4996491;28;20064;-61
2023/04/22 00:48:04;;;;;;;9.82;6.25;;;;;;;11.41;50.78;100771.31;5000410;28;20059;-58
2023/04/22 00:50:31;;;;;;;9.90;6.20;;;;;;;11.37;50.71;100764.53;5000633;28;20433;-61
2023/04/22 00:52:58;;;;;;;9.02;6.32;;;;;;;11.34;50.86;100767.34;5001954;28;20069;-63
2023/04/22 00:55:26;;;;;;;10.30;6.97;;;;;;;11.30;51.23;100763.19;5004936;28;20045;-62
2023/04/22 00:57:54;;;;;;;8.38;5.85;;;;;;;11.27;51.25;100761.59;5010777;28;20399;-60
2023/04/22 01:00:25;;;;;;;9.98;5.38;;;;;;;11.24;51.23;100760.94;4999421;28;20051;-61
2023/04/22 01:02:54;;;;;;;6.90;5.57;;;;;;;11.21;51.74;100761.09;5000254;28;20072;-62
2023/04/22 01:05:23;;;;;;;8.13;6.00;;;;;;;11.18;51.58;100754.25;5002296;28;20056;-63
2023/04/22 01:07:50;;;;;;;8.77;6.00;;;;;;;11.16;51.72;100758.75;5014261;28;20132;-60
2023/04/22 01:10:18;;;;;;;8.45;6.15;;;;;;;11.13;51.69;100764.22;5006493;28;20060;-63
2023/04/22 01:12:45;;;;;;;11.60;6.05;;;;;;;11.10;51.80;100759.97;5001342;28;20054;-61
2023/04/22 01:15:12;;;;;;;9.10;6.38;;;;;;;11.06;52.05;100758.44;5012671;28;20617;-62
2023/04/22 01:17:40;;;;;;;10.65;6.65;;;;;;;11.04;52.21;100762.13;4995512;28;20063;-62
2023/04/22 01:20:09;;;;;;;11.02;6.18;;;;;;;11.03;52.20;100753.38;5000020;28;20061;-63
2023/04/22 01:22:40;;;;;;;11.40;5.40;;;;;;;11.01;52.30;100755.22;5001090;28;20060;-62
2023/04/22 01:25:08;;;;;;;12.43;7.30;;;;;;;10.99;51.93;100756.28;5013955;28;20046;-60
2023/04/22 01:27:36;;;;;;;8.57;6.47;;;;;;;10.95;52.28;100750.34;5012771;28;20049;-61
2023/04/22 01:30:04;;;;;;;12.38;7.18;;;;;;;10.93;52.23;100757.47;4987550;28;20392;-59
2023/04/22 01:32:32;;;;;;;8.40;5.88;;;;;;;10.91;52.39;100748.81;5001218;28;20052;-61
2023/04/22 01:34:59;;;;;;;8.70;5.93;;;;;;;10.89;52.60;100750.69;5003525;28;20060;-64
2023/04/22 01:37:27;;;;;;;10.93;6.47;;;;;;;10.85;52.52;100744.75;5009108;28;20145;-62
2023/04/22 01:39:57;;;;;;;11.25;6.28;;;;;;;10.83;52.98;100741.34;5011049;28;20042;-62
2023/04/22 01:42:24;;;;;;;12.80;6.68;;;;;;;10.81;52.74;100743.25;5004870;28;20049;-62
2023/04/22 01:44:51;;;;;;;10.52;6.53;;;;;;;10.80;53.04;100743.31;5000886;28;20057;-62
2023/04/22 01:47:18;;;;;;;12.45;6.20;;;;;;;10.78;52.98;100747.84;5002646;28;20455;-61
2023/04/22 01:49:46;;;;;;;8.95;6.13;;;;;;;10.75;53.22;100737.47;5000599;28;20616;-61
2023/04/22 01:52:13;;;;;;;12.48;6.43;;;;;;;10.71;53.41;100736.78;5009383;28;20060;-62
2023/04/22 01:54:40;;;;;;;13.10;6.45;;;;;;;10.70;53.23;100739.53;5002569;28;21074;-63
2023/04/22 01:57:13;;;;;;;8.50;6.32;;;;;;;10.67;53.52;100732.63;5001297;28;20053;-62
2023/04/22 01:59:40;;;;;;;11.60;7.75;;;;;;;10.64;53.61;100733.69;5004546;28;20053;-62
2023/04/22 02:02:08;;;;;;;10.02;6.70;;;;;;;10.62;53.38;100729.41;5000362;28;20056;-61
2023/04/22 02:04:35;;;;;;;13.90;6.90;;;;;;;10.58;53.66;100730.53;4999961;28;20086;-62
2023/04/22 02:07:03;;;;;;;11.82;6.55;;;;;;;10.58;53.64;100722.63;5004798;28;20058;-61
2023/04/22 02:09:31;;;;;;;10.65;6.93;;;;;;;10.56;53.85;100720.09;5006286;28;20050;-62
2023/04/22 02:12:00;;;;;;;10.15;5.93;;;;;;;10.56;53.41;100727.16;5006705;28;20046;-59
2023/04/22 02:14:28;;;;;;;9.73;5.93;;;;;;;10.54;53.54;100719.34;5003876;28;20080;-61
2023/04/22 02:16:55;;;;;;;8.77;6.45;;;;;;;10.54;53.81;100714.09;5007508;28;20052;-62
2023/04/22 02:19:22;;;;;;;8.55;7.07;;;;;;;10.54;53.66;100715.88;5006035;28;20046;-62
2023/04/22 02:21:50;;;;;;;8.57;6.43;;;;;;;10.53;53.95;100709.72;5019302;28;20071;-61
2023/04/22 02:24:17;;;;;;;9.48;6.63;;;;;;;10.50;54.06;100714.34;5005715;28;20066;-63
2023/04/22 02:26:44;;;;;;;13.95;7.20;;;;;;;10.49;54.51;100710.00;4999551;28;20046;-62
2023/04/22 02:29:12;;;;;;;9.10;6.30;;;;;;;10.45;54.31;100708.50;4990031;28;20058;-62
2023/04/22 02:31:39;;;;;;;10.57;6.65;;;;;;;10.42;54.34;100703.41;5003877;28;20088;-61
2023/04/22 02:34:06;;;;;;;9.88;6.57;;;;;;;10.40;54.20;100700.84;4986352;28;20076;-61
2023/04/22 02:36:34;;;;;;;11.75;7.35;;;;;;;10.37;54.92;100698.41;4990212;28;20058;-62
2023/04/22 02:39:05;;;;;;;9.15;6.25;;;;;;;10.34;54.86;100703.84;4994132;28;20061;-63
2023/04/22 02:41:32;;;;;;;9.05;5.85;;;;;;;10.30;54.78;100692.63;4993704;28;20520;-62
2023/04/22 02:43:59;;;;;;;8.95;5.90;;;;;;;10.29;54.61;100684.81;4995584;28;20057;-61
2023/04/22 02:46:26;;;;;;;10.18;6.60;;;;;;;10.27;54.91;100686.72;5000557;28;20041;-61
2023/04/22 02:48:53;;;;;;;13.13;6.97;;;;;;;10.24;54.75;100692.09;5000274;28;20049;-62
2023/04/22 02:51:21;;;;;;;9.88;6.82;;;;;;;10.21;54.92;100689.63;5014210;28;20065;-61
2023/04/22 02:53:49;;;;;;;10.95;7.35;;;;;;;10.19;55.13;100686.25;5011729;28;20050;-61
2023/04/22 02:56:16;;;;;;;12.32;6.93;;;;;;;10.16;55.10;100692.53;5006538;28;20060;-62
2023/04/22 02:58:43;;;;;;;15.43;7.47;;;;;;;10.14;54.79;100683.88;5006972;28;20463;-62
2023/04/22 03:01:11;;;;;;;9.20;6.18;;;;;;;10.11;55.10;100684.91;5008222;28;20417;-60
2023/04/22 03:03:38;;;;;;;15.48;6.68;;;;;;;10.11;55.12;100681.41;5020323;28;20058;-63
2023/04/22 03:06:05;;;;;;;8.20;6.47;;;;;;;10.08;55.04;100685.06;5024390;28;20185;-63
2023/04/22 03:08:33;;;;;;;11.85;6.45;;;;;;;10.06;54.75;100689.56;5016186;28;20046;-63
2023/04/22 03:11:01;;;;;;;11.55;7.15;;;;;;;10.04;55.11;100686.19;5010588;28;20095;-62
2023/04/22 03:13:28;;;;;;;9.77;6.93;;;;;;;10.03;55.23;100686.25;5007464;28;20100;-64
2023/04/22 03:15:55;;;;;;;14.57;7.32;;;;;;;10.00;55.28;100676.78;5011166;28;20057;-62
2023/04/22 03:18:23;;;;;;;11.07;7.35;;;;;;;10.01;55.15;100672.34;5009160;28;20119;-62
2023/04/22 03:20:50;;;;;;;11.48;7.80;;;;;;;9.99;55.09;100672.41;5011500;28;20077;-62
2023/04/22 03:23:17;;;;;;;11.50;6.60;;;;;;;9.97;55.38;100676.94;5013223;28;20141;-61
2023/04/22 03:25:44;;;;;;;12.05;7.00;;;;;;;9.94;55.14;100676.25;5014694;28;20148;-62
2023/04/22 03:28:12;;;;;;;12.73;7.90;;;;;;;9.89;55.58;100674.72;5001239;28;20057;-60
2023/04/22 03:30:39;;;;;;;9.32;6.50;;;;;;;9.86;55.25;100681.91;5011909;28;20541;-59
2023/04/22 03:33:06;;;;;;;9.52;6.90;;;;;;;9.83;55.80;100677.69;5007109;28;20160;-60
2023/04/22 03:35:34;;;;;;;11.32;6.30;;;;;;;9.85;55.86;100677.59;5011087;28;20511;-61
2023/04/22 03:38:01;;;;;;;10.55;6.50;;;;;;;9.80;56.18;100679.63;5007047;28;20061;-62
2023/04/22 03:40:28;;;;;;;14.90;6.60;;;;;;;9.76;56.62;100675.47;5010690;28;20137;-61
2023/04/22 03:42:55;;;;;;;15.25;7.60;;;;;;;9.71;56.25;100675.72;5011122;28;20057;-63
2023/04/22 03:45:23;;;;;;;9.82;7.07;;;;;;;9.71;56.14;100680.13;5009823;28;20064;-58
2023/04/22 03:47:50;;;;;;;12.68;6.68;;;;;;;9.69;56.64;100676.75;5006809;28;20088;-60
2023/04/22 03:50:17;;;;;;;11.48;7.28;;;;;;;9.66;56.86;100676.91;5014673;28;20049;-60
2023/04/22 03:52:45;;;;;;;12.52;7.40;;;;;;;9.62;56.85;100684.97;5010312;28;20048;-63
2023/04/22 03:55:12;;;;;;;11.40;7.55;;;;;;;9.60;56.90;100676.31;4998784;28;20058;-62
2023/04/22 03:57:39;;;;;;;15.02;7.50;;;;;;;9.58;57.10;100672.06;5001154;28;20049;-62
2023/04/22 04:00:07;;;;;;;15.70;7.22;;;;;;;9.57;56.99;100679.09;5006322;28;20046;-64
2023/04/22 04:02:34;;;;;;;12.50;7.00;;;;;;;9.57;57.01;100679.09;5009328;28;20150;-61
2023/04/22 04:05:01;;;;;;;13.63;7.38;;;;;;;9.57;57.17;100683.50;5004307;28;20095;-61
2023/04/22 04:07:29;;;;;;;12.20;7.40;;;;;;;9.57;57.80;100670.38;5016815;28;20133;-62
2023/04/22 04:09:56;;;;;;;17.00;7.95;;;;;;;9.55;57.42;100682.75;5013597;28;20446;-60
2023/04/22 04:12:23;;;;;;;9.13;7.15;;;;;;;9.52;58.16;100678.50;5007713;28;20066;-61
2023/04/22 04:14:51;;;;;;;11.05;8.05;;;;;;;9.51;57.90;100684.69;5004552;28;20069;-62
2023/04/22 04:17:18;;;;;;;10.23;7.07;;;;;;;9.51;58.15;100676.81;5003177;28;20602;-61
2023/04/22 04:19:45;;;;;;;13.40;7.65;;;;;;;9.49;58.35;100681.28;5002147;28;20141;-62
2023/04/22 04:22:43;;;;;;;10.57;7.43;;;;;;;9.49;58.04;100686.53;5006969;28;20159;-62
2023/04/22 04:25:10;;;;;;;13.80;7.63;;;;;;;9.49;58.48;100681.28;5009756;28;20062;-62
2023/04/22 04:27:38;;;;;;;12.25;8.05;;;;;;;9.50;58.40;100683.00;5002246;28;20057;-62
2023/04/22 04:30:06;;;;;;;13.95;7.25;;;;;;;9.53;58.35;100677.56;4999965;28;20060;-63
2023/04/22 04:32:34;;;;;;;12.65;7.40;;;;;;;9.53;58.52;100677.56;4999490;28;20073;-63
2023/04/22 04:35:02;;;;;;;9.80;7.20;;;;;;;9.55;58.07;100683.59;5001632;28;20098;-63
2023/04/22 04:37:29;;;;;;;12.52;7.35;;;;;;;9.57;58.24;100683.50;5014364;28;20067;-62
2023/04/22 04:39:58;;;;;;;11.85;8.35;;;;;;;9.57;58.39;100676.47;5000623;28;20086;-63
2023/04/22 04:42:25;;;;;;;15.43;8.38;;;;;;;9.57;58.38;100683.50;4995604;28;20042;-63
2023/04/22 04:44:53;;;;;;;12.00;7.88;;;;;;;9.57;58.45;100680.88;5001611;28;20056;-62
2023/04/22 04:47:21;;;;;;;14.25;8.25;;;;;;;9.55;58.76;100675.72;4994645;28;20058;-62
2023/04/22 04:49:48;;;;;;;15.60;8.05;;;;;;;9.58;58.66;100685.19;5000206;28;20144;-62
2023/04/22 04:52:16;;;;;;;12.73;8.52;;;;;;;9.60;58.48;100686.84;5001395;28;20394;-61
2023/04/22 04:54:43;;;;;;;13.68;8.43;;;;;;;9.61;58.71;100683.25;4996844;28;20755;-62
2023/04/22 04:57:10;;;;;;;14.40;8.50;;;;;;;9.64;58.96;100691.00;5008793;28;20059;-63
2023/04/22 04:59:38;;;;;;;13.38;8.50;;;;;;;9.67;58.74;100687.34;5000970;28;20771;-63
2023/04/22 05:02:05;;;;;;;13.27;8.15;;;;;;;9.72;58.09;100693.19;5006235;28;20321;-62
2023/04/22 05:04:33;;;;;;;19.15;9.07;;;;;;;9.74;58.88;100682.63;5004464;28;20062;-62
2023/04/22 05:07:01;;;;;;;11.85;8.82;;;;;;;9.78;58.69;100686.78;5012052;28;20058;-63
2023/04/22 05:09:28;;;;;;;14.10;8.45;;;;;;;9.80;58.24;100684.91;5008448;28;20140;-61
2023/04/22 05:11:55;;;;;;;13.85;8.23;;;;;;;9.81;58.54;100684.81;5004577;28;20045;-60
2023/04/22 05:14:23;;;;;;;15.90;8.38;;;;;;;9.85;58.32;100688.97;5002128;28;20585;-60
2023/04/22 05:16:50;;;;;;;22.15;9.05;;;;;;;9.90;57.85;100686.06;5004271;28;20058;-61
2023/04/22 05:19:18;;;;;;;12.23;8.52;;;;;;;9.95;58.18;100678.81;5013398;28;20558;-61
2023/04/22 05:21:45;;;;;;;20.13;8.93;;;;;;;10.03;57.99;100686.25;5016855;28;20552;-61
2023/04/22 05:24:12;;;;;;;14.15;8.73;;;;;;;10.08;57.56;100681.56;5014814;28;20413;-62
2023/04/22 05:26:39;;;;;;;18.77;9.25;;;;;;;10.11;58.30;100676.16;5017287;28;20049;-62
2023/04/22 05:29:06;;;;;;;14.52;8.00;;;;;;;10.20;58.11;100686.16;4994229;28;20608;-61
2023/04/22 05:31:34;;;;;;;15.30;8.73;;;;;;;10.27;57.71;100684.94;4994247;28;20045;-60
2023/04/22 05:34:01;;;;;;;11.70;8.18;;;;;;;10.34;58.15;100690.69;4999213;28;20062;-61
2023/04/22 05:36:28;;;;;;;14.27;9.48;;;;;;;10.39;57.88;100689.47;4988066;28;20058;-61
2023/04/22 05:38:57;;;;;;;14.23;8.95;;;;;;;10.46;57.93;100681.25;5008400;28;20061;-59
2023/04/22 05:41:25;;;;;;;14.15;8.65;;;;;;;10.53;57.91;100686.03;5002900;28;20593;-62
2023/04/22 05:43:52;;;;;;;16.98;9.23;;;;;;;10.60;57.26;100692.66;5006545;28;20136;-63
2023/04/22 05:46:19;;;;;;;14.50;8.35;;;;;;;10.68;57.53;100686.13;5006889;28;20057;-59
2023/04/22 05:48:47;;;;;;;14.70;8.88;;;;;;;10.75;57.11;100690.91;5003966;28;20066;-63
2023/04/22 05:51:15;;;;;;;19.88;8.88;;;;;;;10.82;56.45;100691.41;4999556;28;20066;-61
2023/04/22 05:53:43;;;;;;;14.27;8.63;;;;;;;10.89;56.23;100683.03;5015081;28;20080;-63
2023/04/22 05:56:10;;;;;;;16.83;9.13;;;;;;;10.94;55.96;100676.66;5007653;28;20128;-62
2023/04/22 05:58:37;;;;;;;12.15;8.43;;;;;;;10.98;56.04;100681.66;5006013;28;20160;-61
2023/04/22 06:01:05;;;;;;;13.05;9.27;;;;;;;11.07;55.88;100682.88;5001240;28;20056;-60
2023/04/22 06:03:32;;;;;;;18.55;8.77;;;;;;;11.17;55.73;100684.06;5005795;28;20295;-63
2023/04/22 06:05:59;;;;;;;13.23;8.48;;;;;;;11.22;55.29;100683.78;5005498;28;20056;-61
2023/04/22 06:08:28;;;;;;;14.38;9.43;;;;;;;11.30;55.49;100687.63;5008532;28;20064;-63
2023/04/22 06:10:55;;;;;;;11.90;8.77;;;;;;;11.43;55.48;100687.72;5007194;28;20148;-60
2023/04/22 06:13:23;;;;;;;12.93;8.25;;;;;;;11.56;55.05;100683.38;5008178;28;20050;-61
2023/04/22 06:15:50;;;;;;;16.08;8.98;;;;;;;11.65;54.86;100674.06;5015029;28;20532;-63
2023/04/22 06:18:17;;;;;;;19.80;9.73;;;;;;;11.74;54.36;100685.81;5013974;28;20145;-64
2023/04/22 06:20:44;;;;;;;15.95;8.40;;;;;;;11.79;54.03;100683.72;5012610;28;20055;-62
2023/04/22 06:23:11;;;;;;;10.98;7.80;;;;;;;11.86;53.95;100685.94;5014456;28;20140;-62
2023/04/22 06:25:39;;;;;;;14.27;8.43;;;;;;;11.98;53.64;100684.31;5008517;28;20061;-62
2023/04/22 06:28:06;;;;;;;18.63;9.65;;;;;;;12.09;53.43;100684.47;5006575;28;20054;-60
2023/04/22 06:30:33;;;;;;;13.35;7.65;;;;;;;12.21;53.63;100692.53;5008711;28;20042;-61
2023/04/22 06:33:01;;;;;;;19.77;8.90;;;;;;;12.29;52.86;100688.47;5005265;28;20042;-62
2023/04/22 06:35:28;;;;;;;14.68;8.35;;;;;;;12.35;52.60;100695.97;5003991;28;20057;-61
2023/04/22 06:37:55;;;;;;;12.75;8.20;;;;;;;12.38;52.41;100692.28;5005686;28;20137;-63
2023/04/22 06:40:23;;;;;;;13.75;8.50;;;;;;;12.47;52.58;100693.47;5012313;28;20063;-62
2023/04/22 06:42:50;;;;;;;13.65;8.38;;;;;;;12.59;52.15;100685.59;5006374;28;20046;-62
2023/04/22 06:45:17;;;;;;;15.50;8.77;;;;;;;12.72;51.79;100685.63;5010177;28;20058;-62
2023/04/22 06:47:44;;;;;;;17.58;8.57;;;;;;;12.79;51.06;100676.34;5008776;28;20056;-59
2023/04/22 06:50:11;;;;;;;15.05;9.00;;;;;;;12.87;51.53;100675.81;5005431;28;20170;-61
2023/04/22 06:52:39;;;;;;;13.82;8.73;;;;;;;12.97;50.90;100676.91;5006858;28;20049;-60
2023/04/22 06:55:06;;;;;;;15.15;7.65;;;;;;;13.10;51.02;100683.03;5008033;28;20056;-62
2023/04/22 06:57:33;;;;;;;13.20;8.10;;;;;;;13.21;50.48;100684.94;5007520;28;20157;-61
2023/04/22 07:00:03;;;;;;;11.13;7.80;;;;;;;13.35;50.59;100678.72;5005646;28;20057;-62
2023/04/22 07:02:30;;;;;;;11.82;8.60;;;;;;;13.52;50.17;100680.19;4998846;28;20046;-62
2023/04/22 07:04:57;;;;;;;17.05;8.40;;;;;;;13.65;49.76;100671.28;5006466;28;20050;-60
2023/04/22 07:07:25;;;;;;;15.05;8.75;;;;;;;13.75;49.16;100665.34;5003948;28;20136;-61
2023/04/22 07:09:52;;;;;;;15.35;8.85;;;;;;;13.85;48.82;100676.94;5007468;28;20062;-62
2023/04/22 07:12:19;;;;;;;13.95;7.65;;;;;;;13.90;48.91;100675.66;5006716;28;20068;-63
2023/04/22 07:14:48;;;;;;;14.02;7.45;;;;;;;14.09;48.89;100683.09;5008146;28;20065;-61
2023/04/22 07:17:18;;;;;;;15.63;7.70;;;;;;;14.27;48.53;100678.25;5010256;28;20148;-62
2023/04/22 07:19:45;;;;;;;12.30;8.00;;;;;;;14.42;48.16;100674.50;5010781;28;20140;-59
2023/04/22 07:22:12;;;;;;;11.45;7.15;;;;;;;14.59;47.47;100675.06;5014762;28;20054;-61
2023/04/22 07:24:39;;;;;;;19.30;7.55;;;;;;;14.67;47.33;100680.63;5015028;28;20137;-62
2023/04/22 07:27:07;;;;;;;12.07;8.25;;;;;;;14.79;47.07;100682.38;5010877;28;20060;-59
2023/04/22 07:29:34;;;;;;;16.92;7.57;;;;;;;14.87;46.77;100681.81;5010499;28;20060;-60
2023/04/22 07:32:01;;;;;;;15.75;8.40;;;;;;;15.00;46.37;100671.94;5008886;28;20185;-62
2023/04/22 07:34:29;;;;;;;12.73;6.93;;;;;;;15.12;46.18;100672.78;5009227;28;20049;-61
2023/04/22 07:36:56;;;;;;;13.82;7.50;;;;;;;15.16;45.91;100671.59;5010040;28;20254;-62
2023/04/22 07:39:23;;;;;;;20.05;7.75;;;;;;;15.30;45.78;100671.38;5011413;28;20053;-62
2023/04/22 07:41:50;;;;;;;9.90;7.15;;;;;;;15.46;45.27;100673.69;5013109;28;20393;-61
2023/04/22 07:44:20;;;;;;;16.80;8.27;;;;;;;15.58;45.03;100671.84;5008899;28;20057;-62
2023/04/22 07:46:47;;;;;;;11.85;7.78;;;;;;;15.64;44.37;100671.41;5009245;28;20049;-62
2023/04/22 07:49:16;;;;;;;12.05;7.15;;;;;;;15.76;44.73;100672.22;5012226;28;20069;-61
2023/04/22 07:51:43;;;;;;;11.68;7.60;;;;;;;15.84;44.04;100668.00;5009477;28;20061;-62
2023/04/22 07:54:11;;;;;;;14.23;7.32;;;;;;;15.91;44.35;100671.88;5009104;28;20049;-62
2023/04/22 07:56:38;;;;;;;11.90;6.82;;;;;;;16.02;44.00;100660.38;5010413;28;20056;-62
2023/04/22 07:59:05;;;;;;;9.90;6.65;;;;;;;16.15;43.87;100661.06;5013580;28;20138;-61
2023/04/22 08:01:33;;;;;;;14.23;7.65;;;;;;;16.25;43.33;100657.63;5001736;28;20047;-60
2023/04/22 08:04:00;;;;;;;10.73;7.32;;;;;;;16.31;43.46;100649.19;5008434;28;20526;-60
2023/04/22 08:06:28;;;;;;;17.75;7.22;;;;;;;16.35;42.86;100646.16;5006807;28;20489;-62
2023/04/22 08:08:55;;;;;;;12.43;7.88;;;;;;;16.41;42.95;100642.13;5009061;28;20402;-62
2023/04/22 08:11:22;;;;;;;12.25;7.57;;;;;;;16.52;42.86;100643.88;5007009;28;20049;-61
2023/04/22 08:13:49;;;;;;;12.63;6.80;;;;;;;16.70;42.81;100642.34;5009697;28;20042;-63
2023/04/22 08:16:17;;;;;;;10.90;7.15;;;;;;;16.85;42.35;100638.44;5008114;28;20161;-63
2023/04/22 08:18:45;;;;;;;9.65;7.35;;;;;;;16.96;42.51;100638.34;5009954;28;20065;-61
2023/04/22 08:21:13;;;;;;;12.73;7.45;;;;;;;17.16;42.51;100628.66;5010915;28;20058;-60
2023/04/22 08:23:40;;;;;;;12.10;7.22;;;;;;;17.37;42.52;100638.41;5010267;28;20046;-62
2023/04/22 08:26:08;;;;;;;13.18;6.82;;;;;;;17.46;42.17;100630.47;5007864;28;20239;-61
2023/04/22 08:28:36;;;;;;;15.90;7.70;;;;;;;17.52;41.14;100637.09;5006329;28;20052;-59
2023/04/22 08:31:03;;;;;;;11.80;6.35;;;;;;;17.64;40.97;100633.31;5010069;28;20085;-62
2023/04/22 08:33:30;;;;;;;9.48;5.88;;;;;;;17.73;40.33;100634.31;5010332;28;20778;-59
2023/04/22 08:35:57;;;;;;;10.80;7.03;;;;;;;17.85;40.20;100630.59;5008676;28;20489;-60
2023/04/22 08:38:25;;;;;;;10.38;6.63;;;;;;;17.98;40.11;100622.38;5009238;28;20089;-61
2023/04/22 08:40:55;;;;;;;10.05;6.68;;;;;;;18.08;39.67;100627.69;5013457;28;20050;-62
2023/04/22 08:43:24;;;;;;;7.90;6.10;;;;;;;18.12;39.82;100629.09;5026788;23;20052;-78
2023/04/22 08:45:51;;;;;;;16.10;6.78;;;;;;;18.25;39.54;100621.69;5026170;28;20136;-78
2023/04/22 08:48:18;;;;;;;10.50;6.47;;;;;;;18.35;39.56;100629.69;5007125;28;20092;-79
2023/04/22 08:50:47;;;;;;;11.23;6.55;;;;;;;18.47;39.59;100631.22;5030494;28;20518;-78
2023/04/22 08:53:14;;;;;;;10.20;6.50;;;;;;;18.56;39.29;100630.38;5030278;28;20468;-78
2023/04/22 08:55:43;;;;;;;13.35;6.70;;;;;;;18.69;39.92;100622.13;5036067;28;20095;-81
2023/04/22 08:58:11;;;;;;;9.35;6.53;;;;;;;18.85;39.06;100618.84;5022626;28;20072;-82
2023/04/22 09:00:42;;;;;;;9.35;5.78;;;;;;;18.94;38.97;100618.81;5010626;28;20293;-80
2023/04/22 09:03:09;;;;;;;10.05;6.57;;;;;;;19.08;38.49;100628.19;5006574;28;20129;-81
2023/04/22 09:05:39;;;;;;;14.20;6.05;;;;;;;19.05;37.56;100620.50;5044978;28;20136;-81
2023/04/22 09:08:07;;;;;;;7.65;5.25;;;;;;;19.05;37.39;100622.28;5011551;28;20041;-81
2023/04/22 09:10:36;;;;;;;10.07;5.38;;;;;;;19.10;38.06;100620.91;5011181;28;20127;-79
2023/04/22 09:13:05;;;;;;;8.25;5.30;;;;;;;19.29;37.68;100617.31;5014585;28;20072;-79
2023/04/22 09:15:32;;;;;;;10.43;6.15;;;;;;;19.44;37.84;100614.97;5027226;28;20060;-79
2023/04/22 09:18:02;;;;;;;13.98;6.18;;;;;;;19.56;37.67;100619.16;5016589;28;20076;-80
2023/04/22 09:20:30;;;;;;;11.73;5.50;;;;;;;19.63;37.46;100604.25;5022642;28;20212;-82
2023/04/22 09:23:03;;;;;;;12.25;6.03;;;;;;;19.70;37.12;100608.00;5021919;28;20056;-81
2023/04/22 09:25:33;;;;;;;10.48;5.55;;;;;;;19.80;36.95;100610.59;5006934;28;20065;-81
2023/04/22 09:28:02;;;;;;;7.70;5.30;;;;;;;19.84;36.98;100603.97;5042919;28;20041;-79
2023/04/22 09:30:31;;;;;;;12.23;5.40;;;;;;;19.94;36.67;100604.72;5020601;28;20048;-80
2023/04/22 09:33:05;;;;;;;9.73;4.85;;;;;;;19.93;36.27;100595.03;5029054;28;20037;-79
2023/04/22 09:35:39;;;;;;;11.15;5.70;;;;;;;19.98;36.28;100598.09;5014662;28;20087;-80
2023/04/22 09:38:12;;;;;;;10.95;5.50;;;;;;;20.02;36.27;100590.63;5014116;28;20068;-80
2023/04/22 09:40:42;;;;;;;12.07;5.13;;;;;;;20.13;35.82;100594.91;5029223;28;20041;-79
2023/04/22 09:43:11;;;;;;;10.88;5.20;;;;;;;20.17;35.48;100586.44;5010002;28;20068;-79
2023/04/22 09:46:13;;;;;;;8.38;4.43;;;;;;;20.24;35.15;100589.31;5026739;28;20049;-81
2023/04/22 09:49:31;;;;;;;10.90;5.65;;;;;;;20.29;35.70;100584.34;5024480;28;20155;-81
2023/04/22 09:52:00;;;;;;;13.02;4.88;;;;;;;20.41;35.83;100572.44;5030683;28;20048;-80
2023/04/22 09:54:27;;;;;;;7.78;5.22;;;;;;;20.65;35.09;100576.31;5027920;28;20127;-80
2023/04/22 09:56:55;;;;;;;10.90;4.85;;;;;;;20.76;35.17;100565.34;5032091;28;20049;-82
2023/04/22 09:59:24;;;;;;;12.45;4.68;;;;;;;20.83;35.17;100570.91;5027080;28;20136;-81
2023/04/22 10:01:54;;;;;;;11.95;4.68;;;;;;;20.92;34.86;100560.06;5008631;28;20121;-83
2023/04/22 10:04:27;;;;;;;5.80;4.35;;;;;;;21.05;34.75;100562.31;4999966;28;20059;-81
2023/04/22 10:07:01;;;;;;;9.15;4.80;;;;;;;21.15;34.22;100555.00;5042875;28;20393;-83
2023/04/22 10:09:31;;;;;;;8.45;4.95;;;;;;;21.31;34.22;100551.59;5021681;28;20104;-81
2023/04/22 10:12:00;;;;;;;8.07;5.00;;;;;;;21.41;33.92;100563.00;5015172;28;20060;-82
2023/04/22 10:14:28;;;;;;;8.15;4.47;;;;;;;21.41;34.03;100552.28;5025806;28;20049;-82
2023/04/22 10:17:01;;;;;;;10.52;4.97;;;;;;;21.54;34.25;100556.38;5023884;28;20059;-82
2023/04/22 10:19:28;;;;;;;7.90;4.47;;;;;;;21.66;33.78;100555.91;5007876;28;20099;-82
2023/04/22 10:21:58;;;;;;;12.73;4.82;;;;;;;21.83;34.14;100551.38;5023968;28;20495;-82
2023/04/22 10:24:27;;;;;;;10.45;4.45;;;;;;;21.92;33.60;100544.19;5027592;28;20113;-83
2023/04/22 10:26:58;;;;;;;11.82;4.15;;;;;;;21.96;32.60;100543.69;5011248;28;20049;-83
2023/04/22 10:29:34;;;;;;;8.57;4.45;;;;;;;21.98;32.46;100540.88;5011006;28;20053;-83
2023/04/22 10:32:22;;;;;;;7.35;5.18;;;;;;;21.91;32.84;100534.50;5003926;28;20105;-83
2023/04/22 10:35:06;;;;;;;8.90;4.68;;;;;;;22.06;32.20;100530.13;5026387;28;20127;-84
2023/04/22 10:37:34;;;;;;;10.48;4.38;;;;;;;22.23;32.21;100518.44;4993672;28;20056;-83
2023/04/22 10:40:08;;;;;;;7.47;4.22;;;;;;;22.34;31.78;100519.13;4995475;28;20073;-85
2023/04/22 10:42:38;;;;;;;8.15;4.53;;;;;;;22.35;31.68;100518.09;5011837;28;20141;-82
2023/04/22 10:45:06;;;;;;;10.95;4.28;;;;;;;22.38;31.53;100517.75;5010110;28;20073;-81
2023/04/22 10:47:36;;;;;;;10.48;5.13;;;;;;;22.34;30.32;100511.06;5013602;28;20537;-83
2023/04/22 10:50:20;;;;;;;7.28;4.30;;;;;;;22.27;29.91;100505.53;5012319;28;20110;-83
2023/04/22 10:53:19;;;;;;;10.45;4.65;;;;;;;22.51;30.35;100501.97;5026220;28;20579;-83
2023/04/22 10:55:51;;;;;;;7.80;4.10;;;;;;;22.61;30.25;100517.91;5028016;28;20143;-87
2023/04/22 10:58:20;;;;;;;12.35;4.47;;;;;;;22.40;29.89;100524.63;5026161;28;20092;-85
2023/04/22 11:00:52;;;;;;;6.18;3.75;;;;;;;22.39;30.25;100508.72;5027647;28;20074;-82
2023/04/22 11:03:26;;;;;;;7.57;4.53;;;;;;;22.53;30.08;100508.00;5033654;28;20148;-82
2023/04/22 11:06:21;;;;;;;7.97;4.38;;;;;;;22.39;30.51;100503.34;5010877;28;20046;-84
2023/04/22 11:08:49;;;;;;;11.95;4.75;;;;;;;22.39;30.82;100503.34;5018648;28;20051;-84
2023/04/22 11:11:18;;;;;;;11.13;4.18;;;;;;;22.50;30.52;100497.63;5015225;28;20127;-84
2023/04/22 11:13:49;;;;;;;12.60;4.55;;;;;;;22.71;30.47;100480.97;4995988;28;20599;-84
2023/04/22 11:16:17;;;;;;;7.93;4.00;;;;;;;22.94;30.42;100494.50;5021417;28;20122;-84
2023/04/22 11:18:49;;;;;;;13.98;5.05;;;;;;;23.07;30.04;100486.72;5008472;28;20041;-81
2023/04/22 11:21:17;;;;;;;8.80;4.28;;;;;;;23.19;29.38;100482.66;4997534;28;20053;-83
2023/04/22 11:23:51;;;;;;;6.38;3.85;;;;;;;23.04;28.46;100505.88;4997440;28;20772;-82
2023/04/22 11:26:36;;;;;;;5.38;3.80;;;;;;;23.10;28.39;100491.75;5046938;28;20136;-82
2023/04/22 11:29:03;;;;;;;10.57;5.00;;;;;;;23.06;28.26;100485.06;5025847;28;20718;-82